createdAt,value
2023-08-04T00:08:45.744Z,16.27
2023-08-04T00:28:45.718Z,16.27
2023-08-04T00:48:45.708Z,16.27
2023-08-04T01:08:45.682Z,16.26
2023-08-04T01:28:45.672Z,16.26
2023-08-04T01:48:45.653Z,16.26
2023-08-04T02:08:45.644Z,16.25
2023-08-04T02:28:45.637Z,16.25
2023-08-04T02:48:45.622Z,16.24
2023-08-04T03:08:45.638Z,16.23
2023-08-04T03:28:45.591Z,16.23
2023-08-04T03:48:45.575Z,16.22
2023-08-04T04:08:45.573Z,16.21
2023-08-04T07:28:45.409Z,16.18
2023-08-04T07:48:45.402Z,16.18
2023-08-04T08:08:45.388Z,16.18
2023-08-04T08:48:45.408Z,16.18
2023-08-04T09:08:45.374Z,16.18
2023-08-04T09:28:45.201Z,16.18
2023-08-04T10:28:45.296Z,16.18
2023-08-04T10:48:45.291Z,16.17
2023-08-04T11:08:45.262Z,16.18
2023-08-04T11:48:45.230Z,16.18
2023-08-04T12:08:45.207Z,16.17
2023-08-04T12:28:45.228Z,16.18
2023-08-04T12:48:45.178Z,16.18
2023-08-04T13:08:45.170Z,16.18
2023-08-04T13:28:45.162Z,16.18
2023-08-04T14:08:45.129Z,16.18
2023-08-04T14:28:45.123Z,16.19
2023-08-04T14:48:45.095Z,16.19
2023-08-04T15:08:45.083Z,16.19
2023-08-04T15:28:45.070Z,16.19
2023-08-04T15:48:45.052Z,16.2
2023-08-04T16:08:45.037Z,16.21
2023-08-04T16:28:45.057Z,16.22
2023-08-04T16:48:45.002Z,16.23
2023-08-04T17:08:45.006Z,16.24
2023-08-04T17:28:44.983Z,16.26
2023-08-04T17:48:44.970Z,16.26
2023-08-04T18:08:44.959Z,16.27
2023-08-04T18:28:44.970Z,16.28
2023-08-04T18:48:44.929Z,16.28
2023-08-04T19:08:44.902Z,16.28
2023-08-04T19:28:44.886Z,16.29
2023-08-04T19:48:46.945Z,16.29
2023-08-04T20:08:44.854Z,16.29
2023-08-04T20:28:44.862Z,16.3
2023-08-04T20:48:44.840Z,16.3
2023-08-04T21:08:44.823Z,16.31
2023-08-04T21:28:44.812Z,16.31
2023-08-04T21:48:44.795Z,16.32
2023-08-04T22:28:44.754Z,16.33
2023-08-04T22:48:44.778Z,16.33
2023-08-04T23:08:44.751Z,16.34
2023-08-04T23:28:44.712Z,16.34
2023-08-04T23:48:44.706Z,16.34
